sensor_id;sensor_type;location;lat;lon;timestamp;P1;durP1;ratioP1;P2;durP2;ratioP2
68593;SDS011;55563;52.416;13.548;2023-04-28T00:01:06;5.38;;;2.67;;
68593;SDS011;55563;52.416;13.548;2023-04-28T00:03:07;4.45;;;2.40;;
68593;SDS011;55563;52.416;13.548;2023-04-28T00:05:07;3.45;;;2.42;;
68593;SDS011;55563;52.416;13.548;2023-04-28T00:07:08;4.07;;;2.25;;
68593;SDS011;55563;52.416;13.548;2023-04-28T00:09:09;4.40;;;2.40;;
68593;SDS011;55563;52.416;13.548;2023-04-28T00:11:10;4.60;;;2.33;;
68593;SDS011;55563;52.416;13.548;2023-04-28T00:13:11;5.22;;;2.50;;
68593;SDS011;55563;52.416;13.548;2023-04-28T00:15:11;5.13;;;2.70;;
68593;SDS011;55563;52.416;13.548;2023-04-28T00:17:12;4.05;;;2.45;;
68593;SDS011;55563;52.416;13.548;2023-04-28T00:19:13;4.30;;;2.50;;
68593;SDS011;55563;52.416;13.548;2023-04-28T00:21:14;4.30;;;2.60;;
68593;SDS011;55563;52.416;13.548;2023-04-28T00:23:17;4.15;;;2.55;;
68593;SDS011;55563;52.416;13.548;2023-04-28T00:25:17;4.95;;;3.22;;
68593;SDS011;55563;52.416;13.548;2023-04-28T00:27:18;6.22;;;2.83;;
68593;SDS011;55563;52.416;13.548;2023-04-28T00:31:20;5.40;;;2.30;;
68593;SDS011;55563;52.416;13.548;2023-04-28T00:33:21;4.18;;;2.42;;
68593;SDS011;55563;52.416;13.548;2023-04-28T00:35:22;4.38;;;2.40;;
68593;SDS011;55563;52.416;13.548;2023-04-28T00:37:22;3.95;;;2.40;;
68593;SDS011;55563;52.416;13.548;2023-04-28T00:39:23;4.25;;;2.58;;
68593;SDS011;55563;52.416;13.548;2023-04-28T00:41:25;4.50;;;2.60;;
68593;SDS011;55563;52.416;13.548;2023-04-28T00:43:26;4.18;;;2.50;;
68593;SDS011;55563;52.416;13.548;2023-04-28T00:45:27;5.25;;;2.90;;
68593;SDS011;55563;52.416;13.548;2023-04-28T00:47:27;4.20;;;2.55;;
68593;SDS011;55563;52.416;13.548;2023-04-28T00:49:28;4.63;;;2.78;;
68593;SDS011;55563;52.416;13.548;2023-04-28T00:51:29;5.13;;;2.53;;
68593;SDS011;55563;52.416;13.548;2023-04-28T00:53:32;5.50;;;2.72;;
68593;SDS011;55563;52.416;13.548;2023-04-28T00:55:34;3.85;;;2.58;;
68593;SDS011;55563;52.416;13.548;2023-04-28T00:57:35;5.03;;;2.60;;
68593;SDS011;55563;52.416;13.548;2023-04-28T00:59:36;4.50;;;2.72;;
68593;SDS011;55563;52.416;13.548;2023-04-28T01:01:36;4.57;;;2.60;;
68593;SDS011;55563;52.416;13.548;2023-04-28T01:03:38;4.65;;;3.20;;
68593;SDS011;55563;52.416;13.548;2023-04-28T01:05:40;6.07;;;2.78;;
68593;SDS011;55563;52.416;13.548;2023-04-28T01:07:41;6.00;;;2.60;;
68593;SDS011;55563;52.416;13.548;2023-04-28T01:09:42;4.93;;;2.88;;
68593;SDS011;55563;52.416;13.548;2023-04-28T01:11:46;4.78;;;2.92;;
68593;SDS011;55563;52.416;13.548;2023-04-28T01:16:11;5.68;;;3.20;;
68593;SDS011;55563;52.416;13.548;2023-04-28T01:18:12;5.53;;;3.13;;
68593;SDS011;55563;52.416;13.548;2023-04-28T01:20:13;4.10;;;2.60;;
68593;SDS011;55563;52.416;13.548;2023-04-28T01:22:15;5.32;;;3.03;;
68593;SDS011;55563;52.416;13.548;2023-04-28T01:24:17;4.38;;;2.53;;
68593;SDS011;55563;52.416;13.548;2023-04-28T01:26:18;5.32;;;2.33;;
68593;SDS011;55563;52.416;13.548;2023-04-28T01:28:18;3.90;;;2.35;;
68593;SDS011;55563;52.416;13.548;2023-04-28T01:30:19;4.97;;;2.55;;
68593;SDS011;55563;52.416;13.548;2023-04-28T01:32:20;4.78;;;2.53;;
68593;SDS011;55563;52.416;13.548;2023-04-28T01:34:20;4.47;;;2.53;;
68593;SDS011;55563;52.416;13.548;2023-04-28T01:36:21;4.25;;;2.40;;
68593;SDS011;55563;52.416;13.548;2023-04-28T01:38:23;5.63;;;2.55;;
68593;SDS011;55563;52.416;13.548;2023-04-28T01:40:24;4.07;;;2.50;;
68593;SDS011;55563;52.416;13.548;2023-04-28T01:42:24;3.75;;;2.22;;
68593;SDS011;55563;52.416;13.548;2023-04-28T01:44:26;4.38;;;2.60;;
68593;SDS011;55563;52.416;13.548;2023-04-28T01:46:27;4.03;;;2.30;;
68593;SDS011;55563;52.416;13.548;2023-04-28T01:48:27;3.47;;;2.10;;
68593;SDS011;55563;52.416;13.548;2023-04-28T01:52:41;4.00;;;2.10;;
68593;SDS011;55563;52.416;13.548;2023-04-28T01:54:42;4.75;;;2.55;;
68593;SDS011;55563;52.416;13.548;2023-04-28T01:56:43;3.25;;;2.10;;
68593;SDS011;55563;52.416;13.548;2023-04-28T01:58:47;3.50;;;2.00;;
68593;SDS011;55563;52.416;13.548;2023-04-28T02:00:47;4.50;;;2.00;;
68593;SDS011;55563;52.416;13.548;2023-04-28T02:02:49;3.42;;;2.20;;
68593;SDS011;55563;52.416;13.548;2023-04-28T02:04:50;3.45;;;1.92;;
68593;SDS011;55563;52.416;13.548;2023-04-28T02:06:51;4.93;;;2.67;;
68593;SDS011;55563;52.416;13.548;2023-04-28T02:08:52;3.40;;;1.95;;
68593;SDS011;55563;52.416;13.548;2023-04-28T02:10:53;3.20;;;2.03;;
68593;SDS011;55563;52.416;13.548;2023-04-28T02:12:55;3.97;;;2.30;;
68593;SDS011;55563;52.416;13.548;2023-04-28T02:14:55;3.22;;;1.85;;
68593;SDS011;55563;52.416;13.548;2023-04-28T02:16:57;3.78;;;2.17;;
68593;SDS011;55563;52.416;13.548;2023-04-28T02:19:00;3.55;;;1.80;;
68593;SDS011;55563;52.416;13.548;2023-04-28T02:21:11;3.97;;;1.80;;
68593;SDS011;55563;52.416;13.548;2023-04-28T02:23:15;2.28;;;1.92;;
68593;SDS011;55563;52.416;13.548;2023-04-28T02:25:17;3.20;;;1.88;;
68593;SDS011;55563;52.416;13.548;2023-04-28T02:27:18;3.78;;;2.10;;
68593;SDS011;55563;52.416;13.548;2023-04-28T02:29:22;3.50;;;1.98;;
68593;SDS011;55563;52.416;13.548;2023-04-28T02:31:24;3.55;;;2.00;;
68593;SDS011;55563;52.416;13.548;2023-04-28T02:33:28;4.05;;;1.88;;
68593;SDS011;55563;52.416;13.548;2023-04-28T02:37:32;2.33;;;1.60;;
68593;SDS011;55563;52.416;13.548;2023-04-28T02:39:35;2.80;;;1.75;;
68593;SDS011;55563;52.416;13.548;2023-04-28T02:41:37;4.03;;;2.03;;
68593;SDS011;55563;52.416;13.548;2023-04-28T02:45:40;1.77;;;1.25;;
68593;SDS011;55563;52.416;13.548;2023-04-28T02:47:41;3.33;;;1.98;;
68593;SDS011;55563;52.416;13.548;2023-04-28T02:49:42;2.38;;;1.85;;
68593;SDS011;55563;52.416;13.548;2023-04-28T02:53:45;3.67;;;1.70;;
68593;SDS011;55563;52.416;13.548;2023-04-28T02:55:46;3.05;;;1.92;;
68593;SDS011;55563;52.416;13.548;2023-04-28T02:57:47;1.52;;;1.27;;
68593;SDS011;55563;52.416;13.548;2023-04-28T02:59:49;3.25;;;1.58;;
68593;SDS011;55563;52.416;13.548;2023-04-28T03:01:50;2.20;;;1.33;;
68593;SDS011;55563;52.416;13.548;2023-04-28T03:03:52;4.10;;;1.85;;
68593;SDS011;55563;52.416;13.548;2023-04-28T03:05:55;2.15;;;1.38;;
68593;SDS011;55563;52.416;13.548;2023-04-28T03:07:56;3.45;;;1.67;;
68593;SDS011;55563;52.416;13.548;2023-04-28T03:09:58;2.30;;;1.60;;
68593;SDS011;55563;52.416;13.548;2023-04-28T03:12:00;7.28;;;2.40;;
68593;SDS011;55563;52.416;13.548;2023-04-28T03:14:04;3.10;;;1.90;;
68593;SDS011;55563;52.416;13.548;2023-04-28T03:16:06;2.92;;;1.70;;
68593;SDS011;55563;52.416;13.548;2023-04-28T03:18:07;3.33;;;2.08;;
68593;SDS011;55563;52.416;13.548;2023-04-28T03:20:09;3.53;;;1.60;;
68593;SDS011;55563;52.416;13.548;2023-04-28T03:22:11;2.72;;;1.65;;
68593;SDS011;55563;52.416;13.548;2023-04-28T03:24:13;3.00;;;1.85;;
68593;SDS011;55563;52.416;13.548;2023-04-28T03:26:20;3.78;;;1.77;;
68593;SDS011;55563;52.416;13.548;2023-04-28T03:28:24;3.03;;;1.90;;
68593;SDS011;55563;52.416;13.548;2023-04-28T03:30:27;5.00;;;1.80;;
68593;SDS011;55563;52.416;13.548;2023-04-28T03:32:28;2.45;;;1.73;;
68593;SDS011;55563;52.416;13.548;2023-04-28T03:34:29;4.05;;;2.10;;
68593;SDS011;55563;52.416;13.548;2023-04-28T03:36:32;3.38;;;1.83;;
68593;SDS011;55563;52.416;13.548;2023-04-28T03:38:49;2.15;;;1.45;;
68593;SDS011;55563;52.416;13.548;2023-04-28T03:40:53;3.70;;;1.80;;
68593;SDS011;55563;52.416;13.548;2023-04-28T03:43:13;4.20;;;1.88;;
68593;SDS011;55563;52.416;13.548;2023-04-28T03:45:23;2.92;;;1.58;;
68593;SDS011;55563;52.416;13.548;2023-04-28T03:47:24;3.67;;;2.05;;
68593;SDS011;55563;52.416;13.548;2023-04-28T03:49:26;4.47;;;2.08;;
68593;SDS011;55563;52.416;13.548;2023-04-28T03:51:29;2.35;;;1.70;;
68593;SDS011;55563;52.416;13.548;2023-04-28T03:53:32;4.13;;;2.13;;
68593;SDS011;55563;52.416;13.548;2023-04-28T03:55:33;3.63;;;1.88;;
68593;SDS011;55563;52.416;13.548;2023-04-28T03:57:34;4.05;;;1.95;;
68593;SDS011;55563;52.416;13.548;2023-04-28T03:59:36;3.50;;;2.05;;
68593;SDS011;55563;52.416;13.548;2023-04-28T04:01:38;2.85;;;1.85;;
68593;SDS011;55563;52.416;13.548;2023-04-28T04:03:39;3.72;;;2.00;;
68593;SDS011;55563;52.416;13.548;2023-04-28T04:05:41;2.42;;;1.52;;
68593;SDS011;55563;52.416;13.548;2023-04-28T04:07:45;3.70;;;1.98;;
68593;SDS011;55563;52.416;13.548;2023-04-28T04:09:46;4.85;;;2.20;;
68593;SDS011;55563;52.416;13.548;2023-04-28T04:11:48;3.33;;;2.00;;
68593;SDS011;55563;52.416;13.548;2023-04-28T04:13:50;4.05;;;1.90;;
68593;SDS011;55563;52.416;13.548;2023-04-28T04:15:52;4.00;;;1.92;;
68593;SDS011;55563;52.416;13.548;2023-04-28T04:17:57;3.00;;;1.80;;
68593;SDS011;55563;52.416;13.548;2023-04-28T04:20:02;5.10;;;1.98;;
68593;SDS011;55563;52.416;13.548;2023-04-28T04:22:05;3.30;;;2.15;;
68593;SDS011;55563;52.416;13.548;2023-04-28T04:24:07;2.90;;;1.45;;
68593;SDS011;55563;52.416;13.548;2023-04-28T04:26:10;5.10;;;2.28;;
68593;SDS011;55563;52.416;13.548;2023-04-28T04:28:12;1.98;;;1.33;;
68593;SDS011;55563;52.416;13.548;2023-04-28T04:30:13;3.42;;;2.15;;
68593;SDS011;55563;52.416;13.548;2023-04-28T04:32:15;3.40;;;1.92;;
68593;SDS011;55563;52.416;13.548;2023-04-28T04:34:17;3.97;;;2.15;;
68593;SDS011;55563;52.416;13.548;2023-04-28T04:36:18;2.83;;;1.50;;
68593;SDS011;55563;52.416;13.548;2023-04-28T04:40:22;1.92;;;1.52;;
68593;SDS011;55563;52.416;13.548;2023-04-28T04:42:24;2.78;;;1.67;;
68593;SDS011;55563;52.416;13.548;2023-04-28T04:44:37;3.17;;;1.70;;
68593;SDS011;55563;52.416;13.548;2023-04-28T04:46:44;2.70;;;1.70;;
68593;SDS011;55563;52.416;13.548;2023-04-28T04:48:45;2.15;;;1.45;;
68593;SDS011;55563;52.416;13.548;2023-04-28T04:50:49;3.08;;;1.80;;
68593;SDS011;55563;52.416;13.548;2023-04-28T04:52:51;3.38;;;2.10;;
68593;SDS011;55563;52.416;13.548;2023-04-28T04:54:56;4.25;;;2.25;;
68593;SDS011;55563;52.416;13.548;2023-04-28T04:56:59;2.85;;;1.90;;
68593;SDS011;55563;52.416;13.548;2023-04-28T04:59:19;4.03;;;1.65;;
68593;SDS011;55563;52.416;13.548;2023-04-28T05:01:29;7.57;;;2.13;;
68593;SDS011;55563;52.416;13.548;2023-04-28T05:03:31;2.20;;;1.38;;
68593;SDS011;55563;52.416;13.548;2023-04-28T05:05:34;3.53;;;1.95;;
68593;SDS011;55563;52.416;13.548;2023-04-28T05:07:46;2.70;;;1.23;;
68593;SDS011;55563;52.416;13.548;2023-04-28T05:09:49;4.90;;;2.30;;
68593;SDS011;55563;52.416;13.548;2023-04-28T05:11:49;4.85;;;1.90;;
68593;SDS011;55563;52.416;13.548;2023-04-28T05:13:52;4.15;;;2.40;;
68593;SDS011;55563;52.416;13.548;2023-04-28T05:15:53;1.27;;;1.00;;
68593;SDS011;55563;52.416;13.548;2023-04-28T05:18:04;1.63;;;1.33;;
68593;SDS011;55563;52.416;13.548;2023-04-28T05:20:10;3.90;;;2.15;;
68593;SDS011;55563;52.416;13.548;2023-04-28T05:22:11;3.67;;;1.88;;
68593;SDS011;55563;52.416;13.548;2023-04-28T05:24:13;2.50;;;1.60;;
68593;SDS011;55563;52.416;13.548;2023-04-28T05:26:15;4.65;;;1.67;;
68593;SDS011;55563;52.416;13.548;2023-04-28T05:28:19;2.65;;;1.90;;
68593;SDS011;55563;52.416;13.548;2023-04-28T05:30:22;2.85;;;1.75;;
68593;SDS011;55563;52.416;13.548;2023-04-28T05:32:24;2.70;;;1.77;;
68593;SDS011;55563;52.416;13.548;2023-04-28T05:34:26;4.35;;;2.60;;
68593;SDS011;55563;52.416;13.548;2023-04-28T05:36:27;4.00;;;1.80;;
68593;SDS011;55563;52.416;13.548;2023-04-28T05:38:28;2.80;;;1.70;;
68593;SDS011;55563;52.416;13.548;2023-04-28T05:40:32;1.63;;;1.02;;
68593;SDS011;55563;52.416;13.548;2023-04-28T05:42:35;2.45;;;1.88;;
68593;SDS011;55563;52.416;13.548;2023-04-28T05:44:36;3.47;;;1.90;;
68593;SDS011;55563;52.416;13.548;2023-04-28T05:46:38;3.22;;;1.83;;
68593;SDS011;55563;52.416;13.548;2023-04-28T05:48:40;4.30;;;1.88;;
68593;SDS011;55563;52.416;13.548;2023-04-28T05:50:40;1.55;;;1.10;;
68593;SDS011;55563;52.416;13.548;2023-04-28T05:52:41;2.80;;;2.17;;
68593;SDS011;55563;52.416;13.548;2023-04-28T05:54:46;3.30;;;1.73;;
68593;SDS011;55563;52.416;13.548;2023-04-28T05:56:49;2.10;;;1.55;;
68593;SDS011;55563;52.416;13.548;2023-04-28T05:58:52;3.75;;;1.75;;
68593;SDS011;55563;52.416;13.548;2023-04-28T06:00:53;4.60;;;1.63;;
68593;SDS011;55563;52.416;13.548;2023-04-28T06:02:55;1.52;;;1.05;;
68593;SDS011;55563;52.416;13.548;2023-04-28T06:04:56;5.00;;;2.20;;
68593;SDS011;55563;52.416;13.548;2023-04-28T06:06:58;2.90;;;1.75;;
68593;SDS011;55563;52.416;13.548;2023-04-28T06:09:01;3.72;;;1.92;;
68593;SDS011;55563;52.416;13.548;2023-04-28T06:11:04;3.42;;;2.13;;
68593;SDS011;55563;52.416;13.548;2023-04-28T06:13:06;2.70;;;2.00;;
68593;SDS011;55563;52.416;13.548;2023-04-28T06:15:09;4.22;;;2.08;;
68593;SDS011;55563;52.416;13.548;2023-04-28T06:17:12;3.47;;;2.08;;
68593;SDS011;55563;52.416;13.548;2023-04-28T06:19:13;3.20;;;1.60;;
68593;SDS011;55563;52.416;13.548;2023-04-28T06:21:19;4.65;;;2.42;;
68593;SDS011;55563;52.416;13.548;2023-04-28T06:23:20;4.30;;;2.28;;
68593;SDS011;55563;52.416;13.548;2023-04-28T06:25:24;4.03;;;2.30;;
68593;SDS011;55563;52.416;13.548;2023-04-28T06:27:26;4.38;;;2.17;;
68593;SDS011;55563;52.416;13.548;2023-04-28T06:29:28;3.83;;;2.00;;
68593;SDS011;55563;52.416;13.548;2023-04-28T06:31:29;2.90;;;1.60;;
68593;SDS011;55563;52.416;13.548;2023-04-28T06:33:30;4.32;;;1.92;;
68593;SDS011;55563;52.416;13.548;2023-04-28T06:35:33;2.03;;;1.42;;
68593;SDS011;55563;52.416;13.548;2023-04-28T06:37:35;4.40;;;2.15;;
68593;SDS011;55563;52.416;13.548;2023-04-28T06:39:37;2.63;;;1.50;;
68593;SDS011;55563;52.416;13.548;2023-04-28T06:41:39;4.75;;;2.50;;
68593;SDS011;55563;52.416;13.548;2023-04-28T06:43:42;3.90;;;2.20;;
68593;SDS011;55563;52.416;13.548;2023-04-28T06:45:49;2.53;;;1.70;;
68593;SDS011;55563;52.416;13.548;2023-04-28T06:47:50;2.67;;;1.48;;
68593;SDS011;55563;52.416;13.548;2023-04-28T06:49:54;3.53;;;2.10;;
68593;SDS011;55563;52.416;13.548;2023-04-28T06:51:55;1.90;;;1.35;;
68593;SDS011;55563;52.416;13.548;2023-04-28T06:53:57;2.75;;;1.85;;
68593;SDS011;55563;52.416;13.548;2023-04-28T06:55:59;4.82;;;2.75;;
68593;SDS011;55563;52.416;13.548;2023-04-28T06:58:02;8.13;;;5.40;;
68593;SDS011;55563;52.416;13.548;2023-04-28T07:00:07;3.90;;;2.20;;
68593;SDS011;55563;52.416;13.548;2023-04-28T07:02:09;4.05;;;2.30;;
68593;SDS011;55563;52.416;13.548;2023-04-28T07:04:10;2.20;;;1.63;;
68593;SDS011;55563;52.416;13.548;2023-04-28T07:06:13;2.00;;;1.30;;
68593;SDS011;55563;52.416;13.548;2023-04-28T07:08:14;3.22;;;1.55;;
68593;SDS011;55563;52.416;13.548;2023-04-28T07:10:17;4.40;;;1.77;;
68593;SDS011;55563;52.416;13.548;2023-04-28T07:12:18;2.85;;;1.63;;
68593;SDS011;55563;52.416;13.548;2023-04-28T07:14:19;3.13;;;1.70;;
68593;SDS011;55563;52.416;13.548;2023-04-28T07:16:21;2.13;;;1.33;;
68593;SDS011;55563;52.416;13.548;2023-04-28T07:18:24;2.67;;;1.30;;
68593;SDS011;55563;52.416;13.548;2023-04-28T07:20:27;3.20;;;2.00;;
68593;SDS011;55563;52.416;13.548;2023-04-28T07:22:29;2.83;;;1.52;;
68593;SDS011;55563;52.416;13.548;2023-04-28T07:24:31;3.30;;;2.00;;
68593;SDS011;55563;52.416;13.548;2023-04-28T07:26:33;2.20;;;1.45;;
68593;SDS011;55563;52.416;13.548;2023-04-28T07:28:34;3.33;;;1.42;;
68593;SDS011;55563;52.416;13.548;2023-04-28T07:30:38;3.53;;;1.83;;
68593;SDS011;55563;52.416;13.548;2023-04-28T07:32:40;3.70;;;2.42;;
68593;SDS011;55563;52.416;13.548;2023-04-28T07:34:43;2.65;;;1.73;;
68593;SDS011;55563;52.416;13.548;2023-04-28T07:37:19;3.38;;;1.70;;
68593;SDS011;55563;52.416;13.548;2023-04-28T07:40:35;3.33;;;1.90;;
68593;SDS011;55563;52.416;13.548;2023-04-28T07:44:05;2.88;;;1.45;;
68593;SDS011;55563;52.416;13.548;2023-04-28T07:46:46;2.80;;;1.52;;
68593;SDS011;55563;52.416;13.548;2023-04-28T07:49:03;2.58;;;1.80;;
68593;SDS011;55563;52.416;13.548;2023-04-28T07:51:38;4.72;;;2.20;;
68593;SDS011;55563;52.416;13.548;2023-04-28T07:54:36;3.03;;;1.85;;
68593;SDS011;55563;52.416;13.548;2023-04-28T07:58:30;3.50;;;2.10;;
68593;SDS011;55563;52.416;13.548;2023-04-28T08:00:39;4.57;;;2.08;;
68593;SDS011;55563;52.416;13.548;2023-04-28T08:03:13;2.03;;;1.13;;
68593;SDS011;55563;52.416;13.548;2023-04-28T08:06:10;4.05;;;1.83;;
68593;SDS011;55563;52.416;13.548;2023-04-28T08:10:10;5.82;;;2.20;;
68593;SDS011;55563;52.416;13.548;2023-04-28T08:13:34;3.50;;;1.73;;
68593;SDS011;55563;52.416;13.548;2023-04-28T08:15:41;2.88;;;1.48;;
68593;SDS011;55563;52.416;13.548;2023-04-28T08:18:08;4.63;;;1.98;;
68593;SDS011;55563;52.416;13.548;2023-04-28T08:20:25;3.50;;;2.00;;
68593;SDS011;55563;52.416;13.548;2023-04-28T08:23:26;2.10;;;1.55;;
68593;SDS011;55563;52.416;13.548;2023-04-28T08:25:35;3.13;;;1.83;;
68593;SDS011;55563;52.416;13.548;2023-04-28T08:27:36;2.97;;;1.60;;
68593;SDS011;55563;52.416;13.548;2023-04-28T08:29:46;3.78;;;1.75;;
68593;SDS011;55563;52.416;13.548;2023-04-28T08:32:49;3.47;;;1.90;;
68593;SDS011;55563;52.416;13.548;2023-04-28T08:35:50;3.08;;;1.77;;
68593;SDS011;55563;52.416;13.548;2023-04-28T08:43:25;3.63;;;1.90;;
68593;SDS011;55563;52.416;13.548;2023-04-28T08:46:29;4.47;;;2.20;;
68593;SDS011;55563;52.416;13.548;2023-04-28T08:48:43;3.28;;;2.00;;
68593;SDS011;55563;52.416;13.548;2023-04-28T08:50:48;3.08;;;2.03;;
68593;SDS011;55563;52.416;13.548;2023-04-28T08:52:52;3.60;;;1.60;;
68593;SDS011;55563;52.416;13.548;2023-04-28T08:54:58;4.35;;;2.10;;
68593;SDS011;55563;52.416;13.548;2023-04-28T08:57:03;2.35;;;1.70;;
68593;SDS011;55563;52.416;13.548;2023-04-28T08:59:10;3.70;;;2.33;;
68593;SDS011;55563;52.416;13.548;2023-04-28T09:01:13;2.78;;;2.00;;
68593;SDS011;55563;52.416;13.548;2023-04-28T09:03:14;4.47;;;2.75;;
68593;SDS011;55563;52.416;13.548;2023-04-28T09:05:16;4.68;;;2.45;;
68593;SDS011;55563;52.416;13.548;2023-04-28T09:07:19;2.83;;;1.80;;
68593;SDS011;55563;52.416;13.548;2023-04-28T09:09:26;4.32;;;2.40;;
68593;SDS011;55563;52.416;13.548;2023-04-28T09:11:29;2.70;;;1.95;;
68593;SDS011;55563;52.416;13.548;2023-04-28T09:13:31;3.63;;;2.40;;
68593;SDS011;55563;52.416;13.548;2023-04-28T09:15:36;4.57;;;1.98;;
68593;SDS011;55563;52.416;13.548;2023-04-28T09:17:49;5.22;;;2.70;;
68593;SDS011;55563;52.416;13.548;2023-04-28T09:19:51;4.00;;;2.22;;
68593;SDS011;55563;52.416;13.548;2023-04-28T09:21:55;2.83;;;1.92;;
68593;SDS011;55563;52.416;13.548;2023-04-28T09:23:56;4.22;;;2.50;;
68593;SDS011;55563;52.416;13.548;2023-04-28T09:26:02;4.25;;;2.50;;
68593;SDS011;55563;52.416;13.548;2023-04-28T09:28:18;4.75;;;2.28;;
68593;SDS011;55563;52.416;13.548;2023-04-28T09:30:37;2.45;;;1.40;;
68593;SDS011;55563;52.416;13.548;2023-04-28T09:32:40;3.45;;;2.05;;
68593;SDS011;55563;52.416;13.548;2023-04-28T09:34:43;2.63;;;2.33;;
68593;SDS011;55563;52.416;13.548;2023-04-28T09:36:48;3.65;;;2.20;;
68593;SDS011;55563;52.416;13.548;2023-04-28T09:38:52;4.30;;;2.15;;
68593;SDS011;55563;52.416;13.548;2023-04-28T09:41:02;4.53;;;3.03;;
68593;SDS011;55563;52.416;13.548;2023-04-28T09:43:44;3.90;;;2.35;;
68593;SDS011;55563;52.416;13.548;2023-04-28T09:45:38;4.28;;;2.45;;
68593;SDS011;55563;52.416;13.548;2023-04-28T09:48:07;2.75;;;1.92;;
68593;SDS011;55563;52.416;13.548;2023-04-28T09:50:13;4.90;;;2.53;;
68593;SDS011;55563;52.416;13.548;2023-04-28T09:52:21;2.80;;;1.60;;
68593;SDS011;55563;52.416;13.548;2023-04-28T09:54:30;4.10;;;2.15;;
68593;SDS011;55563;52.416;13.548;2023-04-28T10:01:39;2.47;;;1.77;;
68593;SDS011;55563;52.416;13.548;2023-04-28T10:05:16;3.47;;;2.30;;
68593;SDS011;55563;52.416;13.548;2023-04-28T10:07:19;4.47;;;2.40;;
68593;SDS011;55563;52.416;13.548;2023-04-28T10:09:20;6.63;;;3.60;;
68593;SDS011;55563;52.416;13.548;2023-04-28T10:11:25;4.32;;;2.13;;
68593;SDS011;55563;52.416;13.548;2023-04-28T10:13:27;3.92;;;2.40;;
68593;SDS011;55563;52.416;13.548;2023-04-28T10:17:30;4.15;;;2.20;;
68593;SDS011;55563;52.416;13.548;2023-04-28T10:19:32;4.05;;;2.45;;
68593;SDS011;55563;52.416;13.548;2023-04-28T10:21:34;4.30;;;2.40;;
68593;SDS011;55563;52.416;13.548;2023-04-28T10:26:08;5.63;;;3.40;;
68593;SDS011;55563;52.416;13.548;2023-04-28T10:28:12;10.00;;;2.92;;
68593;SDS011;55563;52.416;13.548;2023-04-28T10:32:16;3.88;;;2.45;;
68593;SDS011;55563;52.416;13.548;2023-04-28T10:34:21;5.28;;;3.20;;
68593;SDS011;55563;52.416;13.548;2023-04-28T10:37:02;3.85;;;2.70;;
68593;SDS011;55563;52.416;13.548;2023-04-28T10:39:19;3.38;;;2.42;;
68593;SDS011;55563;52.416;13.548;2023-04-28T10:41:30;4.90;;;3.53;;
68593;SDS011;55563;52.416;13.548;2023-04-28T10:43:32;4.47;;;2.75;;
68593;SDS011;55563;52.416;13.548;2023-04-28T10:48:03;4.72;;;2.65;;
68593;SDS011;55563;52.416;13.548;2023-04-28T10:50:06;6.20;;;2.80;;
68593;SDS011;55563;52.416;13.548;2023-04-28T10:52:46;6.13;;;2.65;;
68593;SDS011;55563;52.416;13.548;2023-04-28T10:57:36;4.65;;;2.90;;
68593;SDS011;55563;52.416;13.548;2023-04-28T10:59:37;4.43;;;3.10;;
68593;SDS011;55563;52.416;13.548;2023-04-28T11:01:38;4.82;;;2.83;;
68593;SDS011;55563;52.416;13.548;2023-04-28T11:03:48;4.70;;;1.90;;
68593;SDS011;55563;52.416;13.548;2023-04-28T11:13:29;4.70;;;2.72;;
68593;SDS011;55563;52.416;13.548;2023-04-28T11:15:33;3.65;;;2.05;;
68593;SDS011;55563;52.416;13.548;2023-04-28T11:17:38;2.63;;;1.65;;
68593;SDS011;55563;52.416;13.548;2023-04-28T11:19:41;5.47;;;2.60;;
68593;SDS011;55563;52.416;13.548;2023-04-28T11:21:44;3.45;;;2.47;;
68593;SDS011;55563;52.416;13.548;2023-04-28T11:23:46;3.55;;;2.78;;
68593;SDS011;55563;52.416;13.548;2023-04-28T11:28:02;4.75;;;2.78;;
68593;SDS011;55563;52.416;13.548;2023-04-28T11:30:18;5.45;;;2.95;;
68593;SDS011;55563;52.416;13.548;2023-04-28T11:32:25;4.35;;;2.65;;
68593;SDS011;55563;52.416;13.548;2023-04-28T11:34:30;4.22;;;2.58;;
68593;SDS011;55563;52.416;13.548;2023-04-28T11:36:34;3.92;;;2.08;;
68593;SDS011;55563;52.416;13.548;2023-04-28T11:38:43;3.63;;;2.53;;
68593;SDS011;55563;52.416;13.548;2023-04-28T11:40:59;2.88;;;1.77;;
68593;SDS011;55563;52.416;13.548;2023-04-28T11:43:00;5.05;;;2.85;;
68593;SDS011;55563;52.416;13.548;2023-04-28T11:45:03;5.38;;;2.55;;
68593;SDS011;55563;52.416;13.548;2023-04-28T11:49:05;6.78;;;3.20;;
68593;SDS011;55563;52.416;13.548;2023-04-28T11:51:06;3.63;;;2.83;;
68593;SDS011;55563;52.416;13.548;2023-04-28T11:53:07;4.60;;;2.55;;
68593;SDS011;55563;52.416;13.548;2023-04-28T11:55:07;4.35;;;3.00;;
68593;SDS011;55563;52.416;13.548;2023-04-28T11:57:17;4.38;;;2.42;;
68593;SDS011;55563;52.416;13.548;2023-04-28T11:59:27;3.97;;;2.85;;
68593;SDS011;55563;52.416;13.548;2023-04-28T12:01:31;5.05;;;2.67;;
68593;SDS011;55563;52.416;13.548;2023-04-28T12:03:32;4.35;;;2.50;;
68593;SDS011;55563;52.416;13.548;2023-04-28T12:05:43;4.40;;;2.35;;
68593;SDS011;55563;52.416;13.548;2023-04-28T12:07:44;4.25;;;3.08;;
68593;SDS011;55563;52.416;13.548;2023-04-28T12:12:01;4.68;;;3.25;;
68593;SDS011;55563;52.416;13.548;2023-04-28T12:14:05;2.90;;;2.30;;
68593;SDS011;55563;52.416;13.548;2023-04-28T12:16:07;2.67;;;2.17;;
68593;SDS011;55563;52.416;13.548;2023-04-28T12:18:08;3.63;;;2.88;;
68593;SDS011;55563;52.416;13.548;2023-04-28T12:20:11;5.07;;;3.35;;
68593;SDS011;55563;52.416;13.548;2023-04-28T12:22:49;5.05;;;3.20;;
68593;SDS011;55563;52.416;13.548;2023-04-28T12:25:06;5.43;;;3.47;;
68593;SDS011;55563;52.416;13.548;2023-04-28T12:27:24;5.75;;;3.80;;
68593;SDS011;55563;52.416;13.548;2023-04-28T12:29:40;4.97;;;3.00;;
68593;SDS011;55563;52.416;13.548;2023-04-28T12:31:46;3.55;;;2.92;;
68593;SDS011;55563;52.416;13.548;2023-04-28T12:33:49;5.43;;;3.10;;
68593;SDS011;55563;52.416;13.548;2023-04-28T12:35:50;4.93;;;3.00;;
68593;SDS011;55563;52.416;13.548;2023-04-28T12:37:51;4.30;;;2.92;;
68593;SDS011;55563;52.416;13.548;2023-04-28T12:39:53;8.35;;;3.72;;
68593;SDS011;55563;52.416;13.548;2023-04-28T12:41:54;4.85;;;3.08;;
68593;SDS011;55563;52.416;13.548;2023-04-28T12:43:55;3.90;;;3.03;;
68593;SDS011;55563;52.416;13.548;2023-04-28T12:45:55;4.43;;;2.47;;
68593;SDS011;55563;52.416;13.548;2023-04-28T12:47:56;5.03;;;2.80;;
68593;SDS011;55563;52.416;13.548;2023-04-28T12:49:57;6.22;;;2.90;;
68593;SDS011;55563;52.416;13.548;2023-04-28T12:51:58;5.70;;;3.47;;
68593;SDS011;55563;52.416;13.548;2023-04-28T12:53:58;4.30;;;3.20;;
68593;SDS011;55563;52.416;13.548;2023-04-28T12:55:59;6.20;;;3.10;;
68593;SDS011;55563;52.416;13.548;2023-04-28T12:58:00;4.45;;;2.83;;
68593;SDS011;55563;52.416;13.548;2023-04-28T13:00:00;5.50;;;3.08;;
68593;SDS011;55563;52.416;13.548;2023-04-28T13:02:01;4.32;;;3.17;;
68593;SDS011;55563;52.416;13.548;2023-04-28T13:04:02;4.50;;;2.97;;
68593;SDS011;55563;52.416;13.548;2023-04-28T13:06:03;7.60;;;3.40;;
68593;SDS011;55563;52.416;13.548;2023-04-28T13:08:04;5.03;;;2.95;;
68593;SDS011;55563;52.416;13.548;2023-04-28T13:10:05;4.25;;;3.50;;
68593;SDS011;55563;52.416;13.548;2023-04-28T13:12:07;7.40;;;4.40;;
68593;SDS011;55563;52.416;13.548;2023-04-28T13:16:09;4.50;;;3.25;;
68593;SDS011;55563;52.416;13.548;2023-04-28T13:18:10;3.67;;;2.90;;
68593;SDS011;55563;52.416;13.548;2023-04-28T13:20:10;4.85;;;3.25;;
68593;SDS011;55563;52.416;13.548;2023-04-28T13:24:12;4.60;;;3.00;;
68593;SDS011;55563;52.416;13.548;2023-04-28T13:26:13;4.57;;;2.90;;